Time;durP1;ratioP1;P1;durP2;ratioP2;P2;SDS_P1;SDS_P2;PMS_P1;PMS_P2;Temp;Humidity;BMP_temperature;BMP_pressure;BME280_temperature;BME280_humidity;BME280_pressure;Samples;Min_cycle;Max_cycle;Signal;HPM_P1;HPM_P2
2022/09/29 06:00:18;;;;;;;7.78;6.80;;;;;;;11.68;100.00;99486.48;1700520;81;21977;-48
2022/09/29 06:02:50;;;;;;;13.08;7.60;;;;;;;11.78;100.00;99491.99;1700867;82;21027;-50
2022/09/29 06:05:16;;;;;;;9.60;7.55;;;;;;;11.86;100.00;99485.33;1700011;82;21036;-48
2022/09/29 06:07:46;;;;;;;12.55;8.80;;;;;;;11.95;100.00;99485.17;1649971;85;21085;-41
2022/09/29 06:10:16;;;;;;;12.45;8.58;;;;;;;12.07;100.00;99484.08;1663415;83;21407;-49
2022/09/29 06:12:43;;;;;;;15.45;10.65;;;;;;;12.25;100.00;99495.08;1699303;82;22032;-48
2022/09/29 06:15:11;;;;;;;13.03;8.63;;;;;;;12.43;100.00;99489.91;1698137;82;21624;-41
2022/09/29 06:17:38;;;;;;;13.65;9.70;;;;;;;12.63;100.00;99488.17;1701850;81;21010;-42
2022/09/29 06:20:06;;;;;;;15.55;9.90;;;;;;;12.81;100.00;99492.16;1697545;83;21045;-42
2022/09/29 06:22:39;;;;;;;22.58;12.33;;;;;;;12.94;100.00;99485.77;1697762;83;21001;-42
2022/09/29 06:25:15;;;;;;;16.27;10.03;;;;;;;13.08;100.00;99483.27;1678534;83;21412;-42
2022/09/29 06:27:54;;;;;;;18.07;11.08;;;;;;;13.21;100.00;99485.59;1699300;82;21363;-48
2022/09/29 06:30:34;;;;;;;18.48;9.58;;;;;;;13.36;100.00;99487.45;1704441;81;21043;-41
2022/09/29 06:33:07;;;;;;;24.30;11.33;;;;;;;13.46;100.00;99483.27;1705685;82;21542;-48
2022/09/29 06:38:27;;;;;;;12.93;9.55;;;;;;;13.74;100.00;99485.17;1702378;82;21407;-49
2022/09/29 06:40:55;;;;;;;13.03;10.10;;;;;;;13.92;100.00;99489.98;1705588;82;21495;-49
2022/09/29 06:43:23;;;;;;;28.02;14.45;;;;;;;14.07;100.00;99487.38;1696424;83;21489;-43
2022/09/29 06:45:50;;;;;;;22.45;13.72;;;;;;;14.22;100.00;99485.66;1702950;81;21093;-50
2022/09/29 06:48:17;;;;;;;23.30;14.70;;;;;;;14.32;100.00;99488.45;1680572;83;21350;-42
2022/09/29 06:50:43;;;;;;;40.08;19.87;;;;;;;14.37;100.00;99490.47;1703764;81;21101;-42
2022/09/29 06:53:09;;;;;;;27.90;15.08;;;;;;;14.46;100.00;99493.77;1700178;83;20989;-42
2022/09/29 06:55:37;;;;;;;20.25;11.78;;;;;;;14.58;100.00;99494.30;1704468;81;22043;-44
2022/09/29 06:58:04;;;;;;;24.82;13.80;;;;;;;14.73;100.00;99494.33;1702386;81;21045;-49
2022/09/29 07:29:11;;;;;;;8.10;7.12;;;;;;;16.28;96.47;99499.36;1734985;80;21659;-42
2022/09/29 07:31:38;;;;;;;7.58;6.67;;;;;;;16.45;95.88;99500.94;1738038;80;21550;-49
2022/09/29 07:34:05;;;;;;;12.50;6.75;;;;;;;16.55;94.59;99506.75;1735683;80;21647;-49
2022/09/29 07:36:32;;;;;;;10.43;6.83;;;;;;;16.60;93.13;99502.62;1740120;80;21033;-42
2022/09/29 07:39:00;;;;;;;9.70;7.05;;;;;;;16.63;91.38;99499.86;1742813;80;21419;-42
2022/09/29 07:41:27;;;;;;;8.53;6.45;;;;;;;16.64;90.91;99503.78;1744665;80;21033;-42
2022/09/29 07:43:54;;;;;;;11.63;7.83;;;;;;;16.61;90.72;99505.66;1732884;80;21464;-42
2022/09/29 07:46:20;;;;;;;11.15;8.00;;;;;;;16.59;91.16;99508.84;1743696;80;21077;-42
2022/09/29 07:48:47;;;;;;;16.10;7.30;;;;;;;16.61;91.53;99501.24;1663175;83;21512;-42
2022/09/29 07:51:17;;;;;;;14.73;7.58;;;;;;;16.69;91.60;99500.48;1736509;80;21674;-49
2022/09/29 07:53:45;;;;;;;18.67;9.50;;;;;;;16.74;91.24;99510.45;1738120;80;20995;-42
2022/09/29 07:56:17;;;;;;;14.65;10.98;;;;;;;16.88;91.67;99509.09;1710335;80;21513;-43
2022/09/29 07:58:46;;;;;;;14.58;10.68;;;;;;;17.01;91.81;99506.37;1732275;80;21827;-42
2022/09/29 08:01:14;;;;;;;18.92;10.63;;;;;;;17.14;91.34;99511.57;1734891;80;21618;-49
2022/09/29 08:03:46;;;;;;;15.90;10.60;;;;;;;17.27;90.90;99509.30;1735866;80;21414;-49
2022/09/29 08:06:12;;;;;;;18.57;10.88;;;;;;;17.38;89.65;99511.05;1711627;81;21069;-49
2022/09/29 08:08:40;;;;;;;16.90;11.03;;;;;;;17.52;89.05;99518.45;1734821;80;21368;-42
2022/09/29 08:11:13;;;;;;;15.75;11.33;;;;;;;17.66;88.23;99515.23;1732618;80;21019;-49
2022/09/29 08:13:44;;;;;;;20.77;11.85;;;;;;;17.76;87.83;99521.91;1738048;80;21002;-43
2022/09/29 08:16:13;;;;;;;19.30;11.95;;;;;;;17.85;87.16;99514.89;1709221;82;21431;-50
2022/09/29 08:18:41;;;;;;;26.48;12.60;;;;;;;17.92;87.38;99520.81;1733224;80;20957;-49
2022/09/29 08:21:09;;;;;;;15.65;11.40;;;;;;;17.94;86.05;99519.80;1743336;80;21375;-42
2022/09/29 08:23:38;;;;;;;16.67;11.60;;;;;;;18.00;85.86;99528.80;1734381;80;21311;-49
2022/09/29 08:26:15;;;;;;;17.25;12.10;;;;;;;18.16;85.96;99529.48;1731232;80;21045;-43
2022/09/29 08:28:42;;;;;;;15.08;11.48;;;;;;;18.25;84.74;99529.06;1729290;80;21020;-49
2022/09/29 08:31:19;;;;;;;14.18;11.50;;;;;;;18.33;84.48;99524.31;1715961;81;21559;-43
2022/09/29 08:33:43;;;;;;;14.47;11.38;;;;;;;18.41;83.84;99530.59;1724000;81;21038;-49
2022/09/29 08:36:13;;;;;;;14.40;10.82;;;;;;;18.44;82.75;99532.65;1721866;80;21500;-43
2022/09/29 08:38:45;;;;;;;17.82;10.60;;;;;;;18.45;82.11;99533.04;1719234;80;20964;-49
2022/09/29 08:41:38;;;;;;;16.65;11.35;;;;;;;18.39;81.07;99530.66;1721197;81;21741;-49
2022/09/29 08:44:36;;;;;;;20.30;12.58;;;;;;;18.26;80.96;99534.31;1718931;80;21079;-43
2022/09/29 08:47:36;;;;;;;21.70;11.43;;;;;;;18.18;81.68;99541.71;1730078;80;21031;-43
2022/09/29 08:50:15;;;;;;;21.50;11.85;;;;;;;18.17;81.50;99551.91;1721399;80;21073;-50
2022/09/29 08:52:48;;;;;;;24.90;12.53;;;;;;;18.15;81.71;99548.91;1679099;80;21082;-49
2022/09/29 08:55:28;;;;;;;20.00;11.12;;;;;;;18.12;81.98;99547.27;1716213;80;21140;-49
2022/09/29 08:58:00;;;;;;;19.60;11.73;;;;;;;18.09;82.24;99543.45;1719296;80;22100;-47
2022/09/29 09:00:40;;;;;;;24.12;12.65;;;;;;;18.04;82.69;99544.10;1700562;82;21462;-49
2022/09/29 09:03:42;;;;;;;16.12;10.45;;;;;;;17.95;83.26;99553.27;1717715;81;21661;-42
2022/09/29 09:06:29;;;;;;;13.22;11.45;;;;;;;17.86;83.79;99554.11;1722018;81;21598;-49
2022/09/29 09:09:34;;;;;;;15.83;11.53;;;;;;;17.73;84.17;99552.44;1723101;80;21667;-49
2022/09/29 09:12:43;;;;;;;18.05;10.98;;;;;;;17.61;84.88;99553.77;1722790;80;21092;-42
2022/09/29 09:15:26;;;;;;;20.90;12.95;;;;;;;17.45;85.89;99559.26;1697357;81;21719;-49
2022/09/29 09:18:05;;;;;;;17.50;14.10;;;;;;;17.31;86.91;99554.99;1706708;80;21634;-42
2022/09/29 09:20:42;;;;;;;15.13;11.30;;;;;;;17.20;87.28;99553.62;1721341;80;21536;-42
2022/09/29 09:23:26;;;;;;;12.75;10.63;;;;;;;17.06;88.10;99553.77;1677603;83;21000;-42
2022/09/29 09:25:59;;;;;;;14.93;10.30;;;;;;;16.96;89.40;99544.85;1637998;85;21064;-41
2022/09/29 09:28:45;;;;;;;15.15;11.57;;;;;;;16.93;90.00;99553.34;1668430;83;21100;-49
2022/09/29 09:31:45;;;;;;;21.23;11.48;;;;;;;16.89;90.78;99544.69;1629164;85;21712;-50
2022/09/29 09:34:48;;;;;;;14.45;9.85;;;;;;;16.89;91.81;99546.47;1633949;85;21505;-49
2022/09/29 09:37:38;;;;;;;12.98;9.33;;;;;;;16.87;92.72;99553.58;1652976;85;21104;-42
2022/09/29 09:40:38;;;;;;;;;;;;;;;16.88;92.53;99546.08;1654543;85;21077;-48
2022/09/29 09:43:13;;;;;;;11.43;8.93;;;;;;;16.91;93.21;99544.63;1647088;85;20427;-49
2022/09/29 09:45:55;;;;;;;9.35;7.72;;;;;;;16.96;93.09;99546.17;1649239;85;21065;-49
2022/09/29 09:48:50;;;;;;;11.88;8.98;;;;;;;17.02;93.20;99543.76;1651285;85;21051;-42
2022/09/29 09:51:45;;;;;;;10.28;8.40;;;;;;;17.14;92.58;99549.03;1653251;85;21209;-49
2022/09/29 09:54:33;;;;;;;9.75;8.75;;;;;;;17.28;92.67;99548.91;1588287;88;21036;-49
2022/09/29 09:57:34;;;;;;;8.13;7.37;;;;;;;17.49;91.85;99537.92;1622792;86;21089;-41
2022/09/29 10:00:08;;;;;;;8.43;7.53;;;;;;;17.69;90.18;99540.25;1614443;86;21694;-49
2022/09/29 10:02:53;;;;;;;7.60;6.90;;;;;;;17.88;89.41;99535.08;1653837;83;21035;-42
2022/09/29 10:05:37;;;;;;;9.70;8.68;;;;;;;18.10;87.90;99540.33;1731424;80;21392;-49
2022/09/29 10:08:28;;;;;;;9.08;7.42;;;;;;;18.27;87.44;99538.68;1720987;80;21108;-42
2022/09/29 10:10:58;;;;;;;10.38;7.25;;;;;;;18.39;86.73;99536.42;1726141;80;21096;-41
2022/09/29 10:13:28;;;;;;;9.65;8.55;;;;;;;18.43;85.56;99534.88;1720553;80;21560;-49
2022/09/29 10:16:24;;;;;;;9.48;8.03;;;;;;;18.48;84.81;99532.03;1724302;80;20982;-49
2022/09/29 10:18:51;;;;;;;8.83;7.92;;;;;;;18.52;85.26;99527.00;1729588;80;21032;-42
2022/09/29 10:21:37;;;;;;;12.07;8.78;;;;;;;18.67;85.08;99523.70;1700036;82;21021;-42
2022/09/29 10:24:33;;;;;;;9.85;8.88;;;;;;;18.78;84.93;99520.08;1695286;80;21028;-42
2022/09/29 10:26:59;;;;;;;10.08;7.72;;;;;;;18.99;84.05;99521.36;1719216;81;21426;-50
2022/09/29 10:29:36;;;;;;;10.50;7.80;;;;;;;19.17;83.42;99524.93;1713724;81;21442;-50
2022/09/29 10:32:11;;;;;;;8.23;7.42;;;;;;;19.26;81.67;99529.81;1699693;82;21603;-48
2022/09/29 10:34:46;;;;;;;9.08;7.78;;;;;;;19.32;81.24;99528.19;1682359;82;21039;-49
2022/09/29 10:37:25;;;;;;;8.10;7.25;;;;;;;19.32;80.90;99524.21;1700867;81;21009;-51
2022/09/29 10:40:13;;;;;;;7.78;7.08;;;;;;;19.39;81.09;99524.30;1698011;82;21096;-40
2022/09/29 10:42:42;;;;;;;7.83;7.08;;;;;;;19.49;80.27;99520.28;1701779;83;21044;-50
2022/09/29 10:45:28;;;;;;;8.80;7.22;;;;;;;19.57;79.25;99516.77;1701644;82;21041;-48
2022/09/29 10:48:08;;;;;;;6.90;6.20;;;;;;;19.64;79.03;99510.25;1702336;81;21016;-49
2022/09/29 10:50:50;;;;;;;8.48;7.03;;;;;;;19.87;76.68;99506.92;1704443;81;21076;-42
2022/09/29 10:53:37;;;;;;;8.20;7.40;;;;;;;20.01;75.62;99508.42;1701766;82;21020;-40
2022/09/29 10:56:19;;;;;;;8.13;7.25;;;;;;;20.11;75.13;99500.83;1702031;81;21651;-40
